createdAt,value
2019-02-08T00:02:10.710Z,0.83
2019-02-08T00:07:19.599Z,0.90
2019-02-08T00:12:28.497Z,1.03
2019-02-08T00:17:37.386Z,0.86
2019-02-08T00:22:44.806Z,0.78
2019-02-08T00:27:53.964Z,0.92
2019-02-08T00:33:03.132Z,0.82
2019-02-08T00:38:12.011Z,0.59
2019-02-08T00:43:20.412Z,0.53
2019-02-08T00:48:29.288Z,0.76
2019-02-08T00:53:38.131Z,0.69
2019-02-08T00:58:47.012Z,0.60
2019-02-08T01:03:56.042Z,0.62
2019-02-08T01:09:05.771Z,0.56
2019-02-08T01:14:14.622Z,1.09
2019-02-08T01:19:23.599Z,0.95
2019-02-08T01:24:32.441Z,0.96
2019-02-08T01:29:41.338Z,0.84
2019-02-08T01:34:50.211Z,1.25
2019-02-08T01:39:59.168Z,0.92
2019-02-08T01:45:08.016Z,0.75
2019-02-08T01:50:16.882Z,1.07
2019-02-08T01:55:26.062Z,0.84
2019-02-08T02:00:34.997Z,1.04
2019-02-08T02:05:43.852Z,0.98
2019-02-08T02:10:52.808Z,1.18
2019-02-08T02:16:01.667Z,1.19
2019-02-08T02:21:10.566Z,1.04
2019-02-08T02:26:19.387Z,1.05
2019-02-08T02:31:28.274Z,1.72
2019-02-08T02:36:37.092Z,1.35
2019-02-08T02:41:45.964Z,1.48
2019-02-08T02:46:54.875Z,1.46
2019-02-08T02:52:03.818Z,1.26
2019-02-08T02:57:12.699Z,1.29
2019-02-08T03:02:21.596Z,1.53
2019-02-08T03:07:30.511Z,1.69
2019-02-08T03:12:39.442Z,1.46
2019-02-08T03:17:48.388Z,1.21
2019-02-08T03:22:57.323Z,1.31
2019-02-08T03:28:06.229Z,1.10
2019-02-08T03:33:15.182Z,0.84
2019-02-08T03:38:24.034Z,0.83
2019-02-08T03:43:32.896Z,0.88
2019-02-08T03:48:42.104Z,0.78
2019-02-08T03:53:50.977Z,0.79
2019-02-08T03:58:59.843Z,0.89
2019-02-08T04:04:08.702Z,1.03
2019-02-08T04:09:17.586Z,0.88
2019-02-08T04:14:26.444Z,0.85
2019-02-08T04:19:35.315Z,1.06
2019-02-08T04:24:44.271Z,1.35
2019-02-08T04:29:53.144Z,0.73
2019-02-08T04:35:02.011Z,0.63
2019-02-08T04:40:11.075Z,0.97
2019-02-08T04:45:19.947Z,0.90
2019-02-08T04:50:28.789Z,0.82
2019-02-08T04:55:37.943Z,0.97
2019-02-08T05:00:46.770Z,1.24
2019-02-08T05:05:56.247Z,0.79
2019-02-08T05:11:05.134Z,0.90
2019-02-08T05:16:14.038Z,0.88
2019-02-08T05:21:22.896Z,0.88
2019-02-08T05:26:31.746Z,0.79
2019-02-08T05:31:40.601Z,0.94
2019-02-08T05:36:49.607Z,0.92
2019-02-08T05:41:58.455Z,0.67
2019-02-08T05:47:07.334Z,0.63
2019-02-08T05:52:16.219Z,0.94
2019-02-08T05:57:25.121Z,0.63
2019-02-08T06:02:33.956Z,1.25
2019-02-08T06:07:42.818Z,0.72
2019-02-08T06:12:51.694Z,0.63
2019-02-08T06:18:00.551Z,0.75
2019-02-08T06:23:09.424Z,1.00
2019-02-08T06:28:18.278Z,1.18
2019-02-08T06:33:27.165Z,1.44
2019-02-08T06:38:36.023Z,1.08
2019-02-08T06:43:44.874Z,1.69
2019-02-08T06:48:53.738Z,1.64
2019-02-08T06:54:02.572Z,1.96
2019-02-08T06:59:11.450Z,2.62
2019-02-08T07:04:21.496Z,2.56
2019-02-08T07:09:28.798Z,2.74
2019-02-08T07:14:37.667Z,2.78
2019-02-08T07:19:46.492Z,2.69
2019-02-08T07:24:54.013Z,3.12
2019-02-08T07:30:02.898Z,2.58
2019-02-08T07:35:11.787Z,2.55
2019-02-08T07:40:20.623Z,2.27
2019-02-08T07:45:29.528Z,2.24
2019-02-08T07:50:38.412Z,2.32
2019-02-08T07:55:47.301Z,2.58
2019-02-08T08:00:56.147Z,2.87
2019-02-08T08:06:05.018Z,2.90
2019-02-08T08:11:13.893Z,2.75
2019-02-08T08:16:22.846Z,2.56
2019-02-08T08:21:31.803Z,2.62
2019-02-08T08:26:40.638Z,2.48
2019-02-08T08:31:49.710Z,3.40
2019-02-08T08:36:58.642Z,3.49
2019-02-08T08:42:07.567Z,3.07
2019-02-08T08:47:16.466Z,3.19
2019-02-08T08:52:23.984Z,2.85
2019-02-08T08:57:32.918Z,2.79
2019-02-08T09:02:41.853Z,2.81
2019-02-08T09:07:50.891Z,2.50
2019-02-08T09:12:59.766Z,2.25
2019-02-08T09:18:08.656Z,2.55
2019-02-08T09:23:17.599Z,2.01
2019-02-08T09:28:26.491Z,1.88
2019-02-08T09:33:35.366Z,1.79
2019-02-08T09:38:44.244Z,1.91
2019-02-08T09:43:53.114Z,2.18
2019-02-08T09:49:01.960Z,2.17
2019-02-08T09:54:10.842Z,2.27
2019-02-08T09:59:19.722Z,2.23
2019-02-08T10:04:28.656Z,2.21
2019-02-08T10:09:37.561Z,2.14
2019-02-08T10:14:46.473Z,2.23
2019-02-08T10:19:53.915Z,2.42
2019-02-08T10:25:02.799Z,1.88
2019-02-08T10:30:11.702Z,1.80
2019-02-08T10:35:20.604Z,1.96
2019-02-08T10:40:29.474Z,1.69
2019-02-08T10:45:38.811Z,1.77
2019-02-08T10:50:47.704Z,1.50
2019-02-08T10:55:56.598Z,1.74
2019-02-08T11:01:05.439Z,1.65
2019-02-08T11:06:14.393Z,1.81
2019-02-08T11:11:23.262Z,1.93
2019-02-08T11:16:32.207Z,1.77
2019-02-08T11:21:39.877Z,1.73
2019-02-08T11:26:49.761Z,2.42
2019-02-08T11:31:59.477Z,1.91
2019-02-08T11:36:58.312Z,1.78
2019-02-08T11:42:07.614Z,1.63
2019-02-08T11:47:16.558Z,1.62
2019-02-08T11:52:35.763Z,1.57
2019-02-08T11:57:34.634Z,1.93
2019-02-08T12:02:43.484Z,2.10
2019-02-08T12:07:52.371Z,2.06
2019-02-08T12:13:01.227Z,2.11
2019-02-08T12:18:10.578Z,2.34
2019-02-08T12:23:19.554Z,2.19
2019-02-08T12:28:28.496Z,2.40
2019-02-08T12:33:37.863Z,2.58
2019-02-08T12:38:46.991Z,2.30
2019-02-08T12:44:49.773Z,2.77
2019-02-08T12:48:59.872Z,3.63
2019-02-08T12:53:58.661Z,3.05
2019-02-08T12:59:08.120Z,3.14
2019-02-08T13:04:16.975Z,3.01
2019-02-08T13:09:26.088Z,3.00
2019-02-08T13:14:34.919Z,3.56
2019-02-08T13:19:45.560Z,3.73
2019-02-08T13:24:44.649Z,3.66
2019-02-08T13:29:54.668Z,3.62
2019-02-08T13:34:54.551Z,3.17
2019-02-08T13:40:03.480Z,3.31
2019-02-08T13:45:12.372Z,3.85
2019-02-08T13:50:21.762Z,3.28
2019-02-08T13:55:29.716Z,3.27
2019-02-08T14:00:38.608Z,3.68
2019-02-08T14:05:47.758Z,3.76
2019-02-08T14:10:56.795Z,4.43
2019-02-08T14:16:05.947Z,4.28
2019-02-08T14:21:14.612Z,4.74
2019-02-08T14:26:23.522Z,4.36
2019-02-08T14:31:32.431Z,4.79
2019-02-08T14:36:41.375Z,4.11
2019-02-08T14:41:50.287Z,3.71
2019-02-08T14:46:59.223Z,4.29
2019-02-08T14:52:08.076Z,4.48
2019-02-08T14:57:17.096Z,4.13
2019-02-08T15:02:25.376Z,4.23
2019-02-08T15:07:34.255Z,4.10
2019-02-08T15:12:43.113Z,4.58
2019-02-08T15:17:52.102Z,4.47
2019-02-08T15:23:00.931Z,4.88
2019-02-08T15:28:09.806Z,4.34
2019-02-08T15:33:18.754Z,4.42
2019-02-08T15:38:27.666Z,4.61
2019-02-08T15:43:36.547Z,4.40
2019-02-08T15:48:45.397Z,5.46
2019-02-08T15:53:54.266Z,4.70
2019-02-08T15:59:03.142Z,4.45
2019-02-08T16:04:12.379Z,4.66
2019-02-08T16:09:21.215Z,3.60
2019-02-08T16:14:29.973Z,3.94
2019-02-08T16:19:38.841Z,4.25
2019-02-08T16:24:47.731Z,4.12
2019-02-08T16:29:56.626Z,3.76
2019-02-08T16:35:05.464Z,4.54
2019-02-08T16:40:14.344Z,3.99
2019-02-08T16:45:28.492Z,4.00
2019-02-08T16:50:24.935Z,4.46
2019-02-08T16:55:33.821Z,3.88
2019-02-08T17:00:43.266Z,3.90
2019-02-08T17:05:52.522Z,4.11
2019-02-08T17:11:01.357Z,4.28
2019-02-08T17:16:10.243Z,3.46
2019-02-08T17:21:19.086Z,4.12
2019-02-08T17:26:27.950Z,3.63
2019-02-08T17:31:36.800Z,3.76
2019-02-08T17:36:45.670Z,3.92
2019-02-08T17:41:54.628Z,3.55
2019-02-08T17:47:03.520Z,4.11
2019-02-08T17:52:12.393Z,4.02
2019-02-08T17:57:21.227Z,3.56
2019-02-08T18:02:30.078Z,8.99
2019-02-08T18:07:39.031Z,9.76
2019-02-08T18:12:47.851Z,16.07
2019-02-08T18:17:57.264Z,12.63
2019-02-08T18:23:06.183Z,9.64
2019-02-08T18:28:16.622Z,9.52
2019-02-08T18:33:23.794Z,4.72
2019-02-08T18:38:32.744Z,4.20
2019-02-08T18:43:43.915Z,2.84
2019-02-08T18:48:42.698Z,5.13
2019-02-08T18:53:51.591Z,13.45
2019-02-08T18:59:00.451Z,5.65
2019-02-08T19:04:09.270Z,3.92
2019-02-08T19:09:18.221Z,5.67
2019-02-08T19:14:27.280Z,3.27
2019-02-08T19:19:36.154Z,18.21
2019-02-08T19:24:45.123Z,24.18
2019-02-08T19:29:53.988Z,20.72
2019-02-08T19:35:02.914Z,5.70
2019-02-08T19:40:12.654Z,11.06
2019-02-08T19:45:45.880Z,4.09
2019-02-08T19:50:23.346Z,3.71
2019-02-08T19:55:32.228Z,3.77
2019-02-08T20:00:44.700Z,3.07
2019-02-08T20:05:44.801Z,3.68
2019-02-08T20:10:43.919Z,3.05
2019-02-08T20:15:53.095Z,2.66
2019-02-08T20:21:02.237Z,2.86
2019-02-08T20:26:11.479Z,2.62
2019-02-08T20:31:20.754Z,2.18
2019-02-08T20:36:28.753Z,2.17
2019-02-08T20:41:38.343Z,2.49
2019-02-08T20:46:53.205Z,1.93
2019-02-08T20:51:52.056Z,2.12
2019-02-08T20:57:00.918Z,2.43
2019-02-08T21:02:09.833Z,1.97
2019-02-08T21:07:18.859Z,2.36
2019-02-08T21:12:27.925Z,1.52
2019-02-08T21:17:36.832Z,1.44
2019-02-08T21:22:45.785Z,1.32
2019-02-08T21:27:55.125Z,1.49
2019-02-08T21:33:04.076Z,1.85
2019-02-08T21:38:12.906Z,1.84
2019-02-08T21:43:21.759Z,2.06
2019-02-08T21:48:30.758Z,2.28
2019-02-08T21:53:39.640Z,2.95
2019-02-08T21:58:47.030Z,14.00
2019-02-08T22:03:56.544Z,12.65
2019-02-08T22:09:05.511Z,16.00
2019-02-08T22:14:16.541Z,5.17
2019-02-08T22:19:15.374Z,3.52
2019-02-08T22:24:24.285Z,2.68
2019-02-08T22:29:33.210Z,3.02
2019-02-08T22:34:42.461Z,3.45
2019-02-08T22:39:51.314Z,4.44
2019-02-08T22:45:08.451Z,4.06
2019-02-08T22:50:08.820Z,3.13
2019-02-08T22:55:17.702Z,3.13
2019-02-08T23:00:26.645Z,3.94
2019-02-08T23:05:35.514Z,2.84
2019-02-08T23:10:44.443Z,2.76
2019-02-08T23:15:53.355Z,3.48
2019-02-08T23:21:02.605Z,3.39
2019-02-08T23:26:11.779Z,3.46
2019-02-08T23:31:20.582Z,3.15
2019-02-08T23:36:30.272Z,2.97
2019-02-08T23:41:38.199Z,3.15
2019-02-08T23:46:47.051Z,3.09
2019-02-08T23:51:55.890Z,2.94
2019-02-08T23:57:04.751Z,3.00
